Time;durP1;ratioP1;P1;durP2;ratioP2;P2;SDS_P1;SDS_P2;PMS_P1;PMS_P2;Temp;Humidity;BMP_temperature;BMP_pressure;BME280_temperature;BME280_humidity;BME280_pressure;Samples;Min_cycle;Max_cycle;Signal;HPM_P1;HPM_P2
2022/09/14 00:00:45;;;;;;;7.27;2.90;;;18.60;83.40;;;;;;5033321;28;20619;-71
2022/09/14 00:03:11;;;;;;;5.80;2.88;;;18.60;83.00;;;;;;5050779;28;20917;-72
2022/09/14 00:05:36;;;;;;;7.00;2.73;;;18.60;84.00;;;;;;5050975;28;20381;-72
2022/09/14 00:08:02;;;;;;;6.80;2.65;;;18.70;77.70;;;;;;5051191;28;20382;-71
2022/09/14 00:10:28;;;;;;;5.25;2.90;;;18.70;81.70;;;;;;5050866;28;20443;-72
2022/09/14 00:12:54;;;;;;;7.88;3.00;;;18.70;82.90;;;;;;5050802;28;20792;-72
2022/09/14 00:15:19;;;;;;;6.90;2.75;;;18.70;82.70;;;;;;5050708;28;20474;-71
2022/09/14 00:17:45;;;;;;;4.95;2.90;;;18.70;85.90;;;;;;5051040;28;20390;-71
2022/09/14 00:20:11;;;;;;;7.00;3.30;;;18.60;87.60;;;;;;5061597;28;20419;-70
2022/09/14 00:22:36;;;;;;;5.65;2.65;;;18.60;87.10;;;;;;5057255;28;20804;-71
2022/09/14 00:25:02;;;;;;;6.15;3.20;;;18.60;89.10;;;;;;5055973;28;20385;-73
2022/09/14 00:27:28;;;;;;;6.97;3.20;;;18.50;91.10;;;;;;5033371;28;20397;-72
2022/09/14 00:29:54;;;;;;;10.73;3.47;;;18.50;88.60;;;;;;5051138;28;20758;-72
2022/09/14 00:32:19;;;;;;;7.10;2.70;;;18.40;90.70;;;;;;5054730;28;20381;-72
2022/09/14 00:34:45;;;;;;;4.53;3.10;;;18.40;92.70;;;;;;5036982;28;20410;-72
2022/09/14 00:37:10;;;;;;;9.10;2.80;;;18.40;89.60;;;;;;5054949;28;20461;-72
2022/09/14 00:39:36;;;;;;;7.38;3.20;;;18.40;89.20;;;;;;5054350;28;20443;-72
2022/09/14 00:42:04;;;;;;;10.20;3.25;;;18.30;88.60;;;;;;5054339;28;20385;-72
2022/09/14 00:44:29;;;;;;;7.90;2.70;;;18.30;89.10;;;;;;5054278;28;20394;-72
2022/09/14 00:47:01;;;;;;;7.07;2.37;;;18.20;89.40;;;;;;5054708;28;20408;-71
2022/09/14 00:49:34;;;;;;;6.15;2.80;;;18.20;87.60;;;;;;5054612;28;20518;-71
2022/09/14 00:52:02;;;;;;;4.93;2.70;;;18.10;89.20;;;;;;5054287;28;20389;-73
2022/09/14 00:54:28;;;;;;;6.50;2.63;;;18.00;87.90;;;;;;5054533;28;20385;-73
2022/09/14 00:56:58;;;;;;;4.50;2.40;;;17.90;87.30;;;;;;5054266;28;20482;-75
2022/09/14 00:59:27;;;;;;;8.20;3.00;;;17.90;89.00;;;;;;5056223;28;20428;-72
2022/09/14 01:01:53;;;;;;;8.80;3.13;;;17.80;90.60;;;;;;5054684;28;20401;-72
2022/09/14 01:04:19;;;;;;;8.88;2.90;;;17.80;91.30;;;;;;5055418;28;20396;-72
2022/09/14 01:07:11;;;;;;;14.77;2.90;;;17.80;92.60;;;;;;5056087;28;20393;-73
2022/09/14 01:09:50;;;;;;;7.47;3.30;;;17.80;94.80;;;;;;5056481;28;20403;-71
2022/09/14 01:12:19;;;;;;;9.50;3.10;;;17.80;93.70;;;;;;5067561;28;20373;-72
2022/09/14 01:14:56;;;;;;;8.70;2.90;;;17.70;94.60;;;;;;5073326;28;20862;-72
2022/09/14 01:17:40;;;;;;;12.40;3.08;;;17.70;93.90;;;;;;5052328;28;20401;-72
2022/09/14 01:20:21;;;;;;;5.78;2.80;;;17.70;93.30;;;;;;5068905;28;20392;-72
2022/09/14 01:23:23;;;;;;;8.57;3.13;;;17.70;95.00;;;;;;5065143;28;20386;-72
2022/09/14 01:25:48;;;;;;;13.77;3.33;;;17.70;94.80;;;;;;5068010;28;20457;-71
2022/09/14 01:28:43;;;;;;;9.27;2.80;;;17.70;95.90;;;;;;5062951;28;20428;-72
2022/09/14 01:31:16;;;;;;;9.07;3.13;;;17.70;93.10;;;;;;5054788;28;20441;-72
2022/09/14 01:33:52;;;;;;;7.47;2.80;;;17.80;90.10;;;;;;5055319;28;20377;-72
2022/09/14 01:36:19;;;;;;;6.65;2.97;;;17.80;85.10;;;;;;5053644;28;20390;-72
2022/09/14 01:38:49;;;;;;;6.93;3.17;;;17.80;86.20;;;;;;5053709;28;20385;-72
2022/09/14 01:41:19;;;;;;;9.20;3.03;;;17.80;85.40;;;;;;5053080;28;20377;-73
2022/09/14 01:43:53;;;;;;;11.73;3.35;;;17.80;84.60;;;;;;5053480;28;20386;-73
2022/09/14 01:46:28;;;;;;;5.60;2.42;;;17.80;86.40;;;;;;5053510;28;20453;-72
2022/09/14 01:49:13;;;;;;;9.27;2.60;;;17.80;85.20;;;;;;5053844;28;20397;-73
2022/09/14 01:51:52;;;;;;;5.67;3.70;;;17.80;85.00;;;;;;5053951;28;20539;-73
2022/09/14 01:54:28;;;;;;;8.43;3.50;;;17.70;87.90;;;;;;5058043;28;20385;-73
2022/09/14 01:57:01;;;;;;;9.93;3.20;;;17.60;91.30;;;;;;5061920;28;20443;-72
2022/09/14 01:59:33;;;;;;;4.97;2.80;;;17.70;90.40;;;;;;5059200;28;20814;-72
2022/09/14 02:02:26;;;;;;;9.88;2.80;;;17.70;87.70;;;;;;5057325;28;20498;-72
2022/09/14 02:05:07;;;;;;;8.63;3.30;;;17.80;85.60;;;;;;5053075;28;20381;-72
2022/09/14 02:07:33;;;;;;;9.20;3.05;;;17.80;85.80;;;;;;5052783;28;20382;-72
2022/09/14 02:10:00;;;;;;;8.43;3.20;;;18.00;78.80;;;;;;5052944;28;20409;-72
2022/09/14 02:12:26;;;;;;;5.68;2.80;;;18.10;77.90;;;;;;5034847;28;20397;-73
2022/09/14 02:14:53;;;;;;;10.13;3.20;;;18.00;77.90;;;;;;5035878;28;20746;-72
2022/09/14 02:17:19;;;;;;;8.32;3.17;;;18.10;81.30;;;;;;5054128;28;20919;-72
2022/09/14 02:19:55;;;;;;;8.77;3.20;;;18.20;80.70;;;;;;5035292;28;20742;-73
2022/09/14 02:22:21;;;;;;;5.70;3.10;;;18.20;81.00;;;;;;5035162;28;20428;-71
2022/09/14 02:24:47;;;;;;;11.20;3.50;;;18.10;83.30;;;;;;5053031;28;20472;-73
2022/09/14 02:27:13;;;;;;;7.33;3.30;;;17.80;89.60;;;;;;5052455;28;20389;-72
2022/09/14 02:29:39;;;;;;;7.43;3.43;;;17.70;93.20;;;;;;5052522;28;21032;-72
2022/09/14 02:32:34;;;;;;;6.80;3.30;;;17.80;90.30;;;;;;5052444;28;20390;-72
2022/09/14 02:35:22;;;;;;;7.33;3.30;;;17.80;89.00;;;;;;5052613;28;20463;-72
2022/09/14 02:38:07;;;;;;;6.25;3.00;;;18.00;89.80;;;;;;5052463;28;20373;-72
2022/09/14 02:40:54;;;;;;;6.18;3.15;;;18.00;88.10;;;;;;5052217;28;20378;-72
2022/09/14 02:43:46;;;;;;;8.10;3.75;;;17.90;90.80;;;;;;5034541;28;20382;-72
2022/09/14 02:46:37;;;;;;;11.60;4.00;;;18.00;89.80;;;;;;5052361;28;20392;-72
2022/09/14 02:49:14;;;;;;;10.10;3.97;;;18.00;90.80;;;;;;5052584;28;20414;-72
2022/09/14 02:52:25;;;;;;;9.40;4.40;;;17.90;95.70;;;;;;5052274;28;20408;-71
2022/09/14 02:55:13;;;;;;;10.77;4.80;;;17.70;97.50;;;;;;5051754;28;20432;-73
2022/09/14 02:58:01;;;;;;;12.55;4.50;;;17.60;99.90;;;;;;5052177;28;20405;-72
2022/09/14 03:00:29;;;;;;;8.90;4.35;;;17.60;99.90;;;;;;5052843;28;20384;-72
2022/09/14 03:02:54;;;;;;;8.60;4.60;;;17.60;99.90;;;;;;5052773;28;20420;-71
2022/09/14 03:05:20;;;;;;;9.33;4.80;;;17.50;99.90;;;;;;5052728;28;20416;-73
2022/09/14 03:07:45;;;;;;;10.10;5.20;;;17.40;99.90;;;;;;5052436;28;20385;-73
2022/09/14 03:10:11;;;;;;;11.23;5.32;;;17.40;99.90;;;;;;5034701;28;20759;-73
2022/09/14 03:12:38;;;;;;;14.50;5.30;;;17.40;99.90;;;;;;5053721;28;20894;-72
2022/09/14 03:15:05;;;;;;;10.48;5.80;;;17.30;99.90;;;;;;5052021;28;20447;-72
2022/09/14 03:17:31;;;;;;;11.00;5.20;;;17.30;99.90;;;;;;5052040;28;20393;-73
2022/09/14 03:19:56;;;;;;;14.30;5.40;;;17.30;99.90;;;;;;5052396;28;20385;-73
2022/09/14 03:22:22;;;;;;;13.80;6.13;;;17.30;99.90;;;;;;5052102;28;20874;-72
2022/09/14 03:24:48;;;;;;;9.40;5.90;;;17.20;99.90;;;;;;5034120;28;20384;-71
2022/09/14 03:27:13;;;;;;;7.80;5.87;;;17.20;99.90;;;;;;5051883;28;20466;-72
2022/09/14 03:29:39;;;;;;;12.07;5.90;;;17.20;99.90;;;;;;5058002;28;20401;-70
2022/09/14 03:32:05;;;;;;;13.13;6.50;;;17.10;99.90;;;;;;5037999;28;20390;-71
2022/09/14 03:34:30;;;;;;;10.47;6.27;;;17.10;99.90;;;;;;5054271;28;20396;-71
2022/09/14 03:36:56;;;;;;;13.50;6.13;;;17.00;99.90;;;;;;5033991;28;20384;-72
2022/09/14 03:39:21;;;;;;;11.57;6.53;;;17.00;99.90;;;;;;5051423;28;20392;-72
2022/09/14 03:41:47;;;;;;;13.70;6.82;;;17.00;99.90;;;;;;5051215;28;20854;-72
2022/09/14 03:44:12;;;;;;;12.27;6.43;;;17.00;99.90;;;;;;5051309;28;20393;-72
2022/09/14 03:46:38;;;;;;;10.77;6.70;;;16.90;99.90;;;;;;5051059;28;20424;-71
2022/09/14 03:49:04;;;;;;;13.18;6.80;;;17.00;99.90;;;;;;5051594;28;20412;-72
2022/09/14 03:51:30;;;;;;;12.30;6.80;;;16.90;99.90;;;;;;5051036;28;20381;-72
2022/09/14 03:53:55;;;;;;;17.30;6.72;;;17.10;99.90;;;;;;5051322;28;20892;-72
2022/09/14 03:56:22;;;;;;;12.10;6.37;;;16.90;99.90;;;;;;5064934;23;20433;-74
2022/09/14 03:58:49;;;;;;;13.60;6.90;;;17.00;99.90;;;;;;5051703;28;20448;-74
2022/09/14 04:01:17;;;;;;;14.15;7.05;;;17.00;99.90;;;;;;5051084;28;20382;-74
2022/09/14 04:03:44;;;;;;;9.73;6.40;;;17.00;99.90;;;;;;5051252;28;20377;-74
2022/09/14 04:06:10;;;;;;;10.85;5.95;;;17.00;99.90;;;;;;5055266;28;20378;-74
2022/09/14 04:08:38;;;;;;;11.20;5.95;;;17.10;99.90;;;;;;5054898;28;20767;-74
2022/09/14 04:11:14;;;;;;;9.90;6.00;;;17.00;99.90;;;;;;5054709;28;20492;-74
2022/09/14 04:13:40;;;;;;;11.98;6.60;;;17.00;99.90;;;;;;5055585;28;20431;-75
2022/09/14 04:16:05;;;;;;;14.25;6.95;;;16.90;99.90;;;;;;5055031;28;20468;-73
2022/09/14 04:18:31;;;;;;;13.20;6.47;;;16.80;99.90;;;;;;5056122;28;20781;-74
2022/09/14 04:20:59;;;;;;;13.35;6.97;;;16.80;99.90;;;;;;5036364;28;20472;-75
2022/09/14 04:23:25;;;;;;;14.65;6.03;;;16.80;99.90;;;;;;5054359;28;20377;-74
2022/09/14 04:25:52;;;;;;;12.32;6.43;;;16.90;99.90;;;;;;5054152;28;20389;-74
2022/09/14 04:28:17;;;;;;;10.38;5.80;;;16.90;99.90;;;;;;5055117;28;20393;-74
2022/09/14 04:30:43;;;;;;;14.07;6.63;;;16.90;99.90;;;;;;5056498;28;20409;-74
2022/09/14 04:33:09;;;;;;;17.30;6.88;;;16.80;99.90;;;;;;5039100;28;20878;-74
2022/09/14 04:35:36;;;;;;;9.80;5.87;;;16.80;99.90;;;;;;5057835;28;20452;-74
2022/09/14 04:38:02;;;;;;;15.93;5.70;;;16.80;99.90;;;;;;5058840;28;20381;-74
2022/09/14 04:40:28;;;;;;;15.48;6.00;;;16.70;99.90;;;;;;5057582;28;20454;-74
2022/09/14 04:42:53;;;;;;;13.13;5.90;;;16.70;99.90;;;;;;5057546;28;20389;-74
2022/09/14 04:45:20;;;;;;;11.90;5.25;;;16.60;99.90;;;;;;5056952;28;20389;-73
2022/09/14 04:47:45;;;;;;;19.75;5.40;;;16.60;99.90;;;;;;5038070;28;20421;-73
2022/09/14 04:50:11;;;;;;;12.13;5.10;;;16.60;99.90;;;;;;5054188;28;20509;-73
2022/09/14 04:52:36;;;;;;;11.10;4.55;;;16.50;99.90;;;;;;5053556;28;20377;-73
2022/09/14 04:55:02;;;;;;;13.95;4.90;;;16.60;99.90;;;;;;5053655;28;20448;-73
2022/09/14 04:57:28;;;;;;;14.45;5.32;;;16.50;99.90;;;;;;5053715;28;20386;-74
2022/09/14 04:59:54;;;;;;;12.98;4.70;;;16.50;99.90;;;;;;5053266;28;20904;-72
2022/09/14 05:02:19;;;;;;;18.90;5.03;;;16.50;99.90;;;;;;5053375;28;20893;-73
2022/09/14 05:04:45;;;;;;;11.93;4.50;;;16.50;99.90;;;;;;5052908;28;20431;-73
2022/09/14 05:07:10;;;;;;;10.50;4.40;;;16.40;99.90;;;;;;5052837;28;20466;-72
2022/09/14 05:09:36;;;;;;;8.10;4.63;;;16.30;99.90;;;;;;5052921;28;20451;-73
2022/09/14 05:12:01;;;;;;;12.98;4.40;;;16.30;99.90;;;;;;5052891;28;20382;-74
2022/09/14 05:14:27;;;;;;;14.13;4.80;;;16.20;99.90;;;;;;5035361;28;20423;-73
2022/09/14 05:16:53;;;;;;;9.80;5.20;;;16.20;99.90;;;;;;5051960;28;20444;-74
2022/09/14 05:19:18;;;;;;;12.18;4.88;;;16.20;99.90;;;;;;5034877;28;20409;-74
2022/09/14 05:21:44;;;;;;;8.80;4.63;;;16.20;99.90;;;;;;5052544;28;20455;-74
2022/09/14 05:24:13;;;;;;;12.85;4.78;;;16.20;99.90;;;;;;5052815;28;20404;-74
2022/09/14 05:26:40;;;;;;;11.75;4.82;;;16.20;99.90;;;;;;5052431;28;20473;-73
2022/09/14 05:29:05;;;;;;;11.90;4.60;;;16.20;99.90;;;;;;5052569;28;20750;-73
2022/09/14 05:31:32;;;;;;;11.30;5.00;;;16.20;99.90;;;;;;5052541;28;20382;-73
2022/09/14 05:33:58;;;;;;;11.17;4.87;;;16.20;99.90;;;;;;5052894;28;20386;-73
2022/09/14 05:36:24;;;;;;;14.52;5.10;;;16.30;99.90;;;;;;5052439;28;20781;-73
2022/09/14 05:38:50;;;;;;;11.57;4.63;;;16.30;99.90;;;;;;5052266;28;20393;-73
2022/09/14 05:41:16;;;;;;;11.40;4.20;;;16.40;99.90;;;;;;5052342;28;20396;-74
2022/09/14 05:43:42;;;;;;;10.85;4.40;;;16.30;99.90;;;;;;5052397;28;20467;-74
2022/09/14 05:46:13;;;;;;;13.30;5.07;;;16.30;99.90;;;;;;5052003;28;20454;-75
2022/09/14 05:48:40;;;;;;;12.90;4.53;;;16.20;99.90;;;;;;5051990;28;20394;-73
2022/09/14 05:51:12;;;;;;;11.15;4.40;;;16.20;99.90;;;;;;5052911;28;20436;-73
2022/09/14 05:53:38;;;;;;;9.77;4.60;;;16.20;99.90;;;;;;5052876;28;20396;-74
2022/09/14 05:56:12;;;;;;;10.00;4.10;;;16.20;99.90;;;;;;5052525;28;20401;-74
2022/09/14 05:58:39;;;;;;;9.88;4.43;;;16.10;99.90;;;;;;5034904;28;20405;-74
2022/09/14 06:01:22;;;;;;;7.18;4.10;;;16.10;99.90;;;;;;5034766;28;20424;-72
2022/09/14 06:03:48;;;;;;;11.27;4.40;;;16.10;99.90;;;;;;5053499;28;20861;-72
2022/09/14 06:06:16;;;;;;;12.50;3.90;;;16.10;99.90;;;;;;5053187;28;20889;-73
2022/09/14 06:08:42;;;;;;;12.32;4.57;;;16.10;99.90;;;;;;5054539;28;20443;-73
2022/09/14 06:11:14;;;;;;;12.85;4.05;;;16.10;99.90;;;;;;5061214;28;20794;-74
2022/09/14 06:13:40;;;;;;;11.00;4.13;;;16.00;99.90;;;;;;5063764;28;20451;-73
2022/09/14 06:16:11;;;;;;;7.03;3.60;;;16.00;99.90;;;;;;5056423;28;20408;-74
2022/09/14 06:18:38;;;;;;;11.18;4.28;;;16.00;99.90;;;;;;5034470;28;20381;-74
2022/09/14 06:21:04;;;;;;;13.25;3.90;;;16.00;99.90;;;;;;5051908;28;20401;-75
2022/09/14 06:23:31;;;;;;;11.60;3.65;;;16.00;99.90;;;;;;5051393;28;20386;-74
2022/09/14 06:25:58;;;;;;;10.20;3.78;;;16.10;99.90;;;;;;5051563;28;20484;-74
2022/09/14 06:28:25;;;;;;;9.55;3.60;;;16.00;99.90;;;;;;5053055;28;20401;-74
2022/09/14 06:30:51;;;;;;;12.55;3.97;;;16.00;99.90;;;;;;5047602;28;20392;-73
2022/09/14 06:33:17;;;;;;;8.53;3.63;;;16.00;99.90;;;;;;5045856;28;20398;-73
2022/09/14 06:35:45;;;;;;;9.82;3.50;;;16.10;99.90;;;;;;5051270;28;20511;-73
2022/09/14 06:38:12;;;;;;;12.50;3.90;;;16.10;99.90;;;;;;5032058;28;20405;-72
2022/09/14 06:40:37;;;;;;;13.77;4.70;;;16.20;99.90;;;;;;5031715;28;20402;-71
2022/09/14 06:43:03;;;;;;;16.70;7.75;;;16.20;99.90;;;;;;5051370;28;20409;-72
2022/09/14 06:45:29;;;;;;;10.73;4.23;;;16.20;99.90;;;;;;5047968;28;20405;-73
2022/09/14 06:47:56;;;;;;;14.63;4.20;;;16.20;99.90;;;;;;5049181;28;20475;-72
2022/09/14 06:50:21;;;;;;;11.27;4.35;;;16.20;99.90;;;;;;5049543;28;20394;-74
2022/09/14 06:52:47;;;;;;;11.27;4.40;;;16.20;99.90;;;;;;5049785;28;20416;-73
2022/09/14 06:55:13;;;;;;;9.95;4.30;;;16.20;99.90;;;;;;5054633;28;20433;-73
2022/09/14 06:57:38;;;;;;;12.05;4.10;;;16.20;99.90;;;;;;5056296;28;20405;-73
2022/09/14 07:00:04;;;;;;;14.60;6.30;;;16.30;99.90;;;;;;5049764;28;20944;-75
2022/09/14 07:02:30;;;;;;;15.00;4.55;;;16.30;99.90;;;;;;5047280;28;20941;-73
2022/09/14 07:04:56;;;;;;;14.98;4.82;;;16.30;99.90;;;;;;5048220;28;20397;-73
2022/09/14 07:07:22;;;;;;;10.55;4.00;;;16.30;99.90;;;;;;5049322;28;20386;-74
2022/09/14 07:09:48;;;;;;;9.88;4.60;;;16.30;99.90;;;;;;5049141;28;20480;-73
2022/09/14 07:12:13;;;;;;;13.77;5.05;;;16.30;99.90;;;;;;5048924;28;20397;-74
2022/09/14 07:14:39;;;;;;;10.90;4.50;;;16.30;99.90;;;;;;5048371;28;20397;-74
2022/09/14 07:17:05;;;;;;;12.53;5.77;;;16.30;99.90;;;;;;5048872;28;20913;-75
2022/09/14 07:19:30;;;;;;;6.07;4.77;;;16.30;99.90;;;;;;5048841;28;20431;-73
2022/09/14 07:21:56;;;;;;;10.90;5.50;;;16.40;99.90;;;;;;5048463;28;20745;-72
2022/09/14 07:24:22;;;;;;;8.70;4.83;;;16.40;99.90;;;;;;5048135;28;20494;-74
2022/09/14 07:26:47;;;;;;;11.40;6.40;;;16.40;99.90;;;;;;5048436;28;20393;-73
2022/09/14 07:29:18;;;;;;;17.60;8.27;;;16.40;99.90;;;;;;5048563;28;20988;-73
2022/09/14 07:31:47;;;;;;;11.52;6.10;;;16.40;99.90;;;;;;5030258;28;20432;-75
2022/09/14 07:34:14;;;;;;;15.18;7.63;;;16.50;99.90;;;;;;5048552;28;20385;-74
2022/09/14 07:36:40;;;;;;;13.68;6.70;;;16.50;99.90;;;;;;5048750;28;20396;-73
2022/09/14 07:39:08;;;;;;;12.43;6.80;;;16.60;99.90;;;;;;5047884;28;20846;-75
2022/09/14 07:41:35;;;;;;;10.75;6.13;;;16.70;99.90;;;;;;5048146;28;20877;-74
2022/09/14 07:44:02;;;;;;;10.90;6.30;;;16.70;99.30;;;;;;5048527;28;20850;-73
2022/09/14 07:46:29;;;;;;;13.45;6.90;;;16.70;99.90;;;;;;5039604;28;20409;-73
2022/09/14 07:49:00;;;;;;;11.18;6.72;;;16.60;99.90;;;;;;5048348;28;20481;-73
2022/09/14 07:51:27;;;;;;;9.30;6.20;;;16.50;99.90;;;;;;5047996;28;20896;-73
2022/09/14 07:53:53;;;;;;;7.65;6.05;;;16.50;99.90;;;;;;5047956;28;20884;-74
2022/09/14 07:56:20;;;;;;;8.05;6.68;;;16.50;99.90;;;;;;5048296;28;20397;-72
2022/09/14 07:58:47;;;;;;;8.60;6.00;;;16.40;99.90;;;;;;5048391;28;20965;-72
2022/09/14 08:01:16;;;;;;;11.60;6.78;;;16.40;99.90;;;;;;5047888;28;20882;-74
2022/09/14 08:03:44;;;;;;;12.80;5.90;;;16.40;99.90;;;;;;5045700;28;20544;-74
2022/09/14 08:06:27;;;;;;;10.82;6.60;;;16.30;99.90;;;;;;5048243;28;20417;-71
2022/09/14 08:08:54;;;;;;;9.43;5.88;;;16.30;99.90;;;;;;5048710;28;20444;-73
2022/09/14 08:11:26;;;;;;;9.68;6.13;;;16.30;99.90;;;;;;5047972;28;20393;-73
2022/09/14 08:13:54;;;;;;;11.97;6.40;;;16.30;99.90;;;;;;5048370;28;20399;-73
2022/09/14 08:16:21;;;;;;;10.90;5.75;;;16.20;99.90;;;;;;5048531;28;20461;-73
2022/09/14 08:18:51;;;;;;;12.83;6.90;;;16.30;99.90;;;;;;5047865;28;20538;-72
2022/09/14 08:21:17;;;;;;;9.55;6.18;;;16.30;99.90;;;;;;5048440;28;20750;-72
2022/09/14 08:23:43;;;;;;;11.05;6.40;;;16.20;99.90;;;;;;5048521;28;20890;-73
2022/09/14 08:26:17;;;;;;;9.77;6.00;;;16.30;99.90;;;;;;5048506;28;20473;-73
2022/09/14 08:28:44;;;;;;;11.37;6.03;;;16.30;99.90;;;;;;5047808;28;20393;-72
2022/09/14 08:31:19;;;;;;;14.63;6.20;;;16.40;99.90;;;;;;5047793;28;20817;-73
2022/09/14 08:33:47;;;;;;;8.77;5.55;;;16.50;99.90;;;;;;5048135;28;20747;-73
2022/09/14 08:36:19;;;;;;;9.13;5.60;;;16.50;99.90;;;;;;5047550;28;20795;-74
2022/09/14 08:38:45;;;;;;;8.15;5.72;;;16.60;99.90;;;;;;5048100;28;20503;-73
2022/09/14 08:41:29;;;;;;;10.65;5.30;;;16.60;99.90;;;;;;5047594;28;20413;-74
2022/09/14 08:44:09;;;;;;;9.90;6.00;;;16.60;99.90;;;;;;5028212;28;20391;-72
2022/09/14 08:46:39;;;;;;;6.95;6.25;;;16.60;99.90;;;;;;5028152;28;20391;-73
2022/09/14 08:49:29;;;;;;;8.38;6.72;;;16.70;99.90;;;;;;5047474;28;20385;-73
2022/09/14 08:51:56;;;;;;;8.40;6.73;;;16.70;99.90;;;;;;5049678;28;20392;-74
2022/09/14 08:54:22;;;;;;;10.30;7.22;;;16.70;99.90;;;;;;5051724;28;20405;-73
2022/09/14 08:57:19;;;;;;;7.85;6.97;;;16.60;99.90;;;;;;5051232;28;20412;-73
2022/09/14 09:00:01;;;;;;;11.63;7.20;;;16.70;99.90;;;;;;5040317;28;20452;-73
2022/09/14 09:03:01;;;;;;;10.13;6.80;;;16.80;99.90;;;;;;5048706;28;20894;-73
2022/09/14 09:05:41;;;;;;;8.40;7.20;;;16.70;97.60;;;;;;5031190;28;20391;-73
2022/09/14 09:08:09;;;;;;;10.27;7.50;;;16.70;99.90;;;;;;5031476;28;20406;-73
2022/09/14 09:10:37;;;;;;;10.50;8.00;;;16.70;99.90;;;;;;5031685;28;20387;-74
2022/09/14 09:13:05;;;;;;;8.70;7.80;;;16.80;99.90;;;;;;5033834;28;20411;-75
2022/09/14 09:15:40;;;;;;;10.45;8.20;;;16.80;99.90;;;;;;5048110;28;20405;-74
2022/09/14 09:18:11;;;;;;;10.63;7.80;;;16.90;99.90;;;;;;5051093;28;20405;-74
2022/09/14 09:20:45;;;;;;;12.05;8.18;;;17.00;97.40;;;;;;5052615;28;20406;-74
2022/09/14 09:23:21;;;;;;;15.77;8.15;;;17.00;99.00;;;;;;5045155;28;20469;-76
2022/09/14 09:26:26;;;;;;;11.00;7.75;;;17.10;95.00;;;;;;5036505;28;20413;-75
2022/09/14 09:28:55;;;;;;;10.10;8.30;;;17.10;95.40;;;;;;5052501;28;20390;-76
2022/09/14 09:31:33;;;;;;;10.45;7.90;;;17.00;99.90;;;;;;5037545;28;20399;-74
2022/09/14 09:34:00;;;;;;;11.10;8.02;;;17.10;99.40;;;;;;5033572;28;20887;-73
2022/09/14 09:36:32;;;;;;;8.68;7.00;;;17.10;98.00;;;;;;5035329;28;20398;-74
2022/09/14 09:38:58;;;;;;;9.00;7.27;;;17.10;95.40;;;;;;5052510;28;20480;-74
2022/09/14 09:41:27;;;;;;;8.80;7.97;;;17.10;97.30;;;;;;5052609;28;20385;-76
2022/09/14 09:44:10;;;;;;;7.90;7.10;;;17.10;99.10;;;;;;5052916;28;20800;-74
2022/09/14 09:46:45;;;;;;;9.10;8.10;;;17.10;94.30;;;;;;5034321;28;20384;-73
2022/09/14 09:49:32;;;;;;;8.80;7.47;;;17.20;96.10;;;;;;5052650;28;20382;-74
2022/09/14 09:52:11;;;;;;;12.73;7.70;;;17.10;96.20;;;;;;5052472;28;20416;-73
2022/09/14 09:54:40;;;;;;;11.90;8.43;;;17.10;98.20;;;;;;5056635;28;20385;-74
2022/09/14 09:57:18;;;;;;;10.48;8.85;;;17.00;99.90;;;;;;5067341;23;20804;-72
2022/09/14 09:59:45;;;;;;;8.90;8.00;;;17.00;98.70;;;;;;5036672;28;20410;-72
2022/09/14 10:02:26;;;;;;;9.07;7.77;;;17.00;99.10;;;;;;5053480;28;20404;-74
2022/09/14 10:05:10;;;;;;;9.47;8.47;;;16.90;98.90;;;;;;5054722;28;20385;-73
2022/09/14 10:07:48;;;;;;;17.05;13.25;;;16.90;99.00;;;;;;5055786;28;20397;-73
2022/09/14 10:10:17;;;;;;;10.93;8.50;;;16.80;99.90;;;;;;5056389;28;20370;-73
2022/09/14 10:12:52;;;;;;;9.73;7.90;;;16.80;99.90;;;;;;5055992;28;20406;-74
2022/09/14 10:15:29;;;;;;;10.52;8.05;;;17.00;99.90;;;;;;5037922;28;20396;-75
2022/09/14 10:18:10;;;;;;;9.38;6.70;;;17.10;97.90;;;;;;5056705;28;20389;-74
2022/09/14 10:20:43;;;;;;;10.90;8.30;;;17.20;95.00;;;;;;5039054;28;20412;-72
2022/09/14 10:23:18;;;;;;;11.60;8.40;;;17.00;95.60;;;;;;5056941;28;20424;-74
2022/09/14 10:26:10;;;;;;;9.50;7.30;;;16.90;98.80;;;;;;5037617;28;20516;-74
2022/09/14 10:28:38;;;;;;;8.23;6.90;;;16.80;99.90;;;;;;5052190;28;20398;-73
2022/09/14 10:31:18;;;;;;;10.00;6.72;;;16.80;99.90;;;;;;5057016;28;20731;-74
2022/09/14 10:33:52;;;;;;;7.80;6.40;;;16.80;99.90;;;;;;5039884;28;20549;-74
2022/09/14 10:36:31;;;;;;;7.10;6.50;;;16.80;99.90;;;;;;5056780;28;20412;-74
2022/09/14 10:39:18;;;;;;;7.10;6.20;;;16.80;99.90;;;;;;5059089;28;20390;-75
2022/09/14 10:41:47;;;;;;;6.90;6.20;;;16.80;99.90;;;;;;5057717;28;20947;-73
2022/09/14 10:44:34;;;;;;;6.53;5.82;;;16.90;99.60;;;;;;5057840;28;20385;-73
2022/09/14 10:47:13;;;;;;;9.00;6.20;;;16.90;99.90;;;;;;5058931;28;20866;-75
2022/09/14 10:50:12;;;;;;;6.47;5.65;;;17.00;99.90;;;;;;5057857;28;20390;-73
2022/09/14 10:52:55;;;;;;;9.90;6.38;;;16.90;99.90;;;;;;5054977;28;20735;-74
2022/09/14 10:55:34;;;;;;;9.13;5.90;;;16.90;99.90;;;;;;5054279;28;20424;-72
2022/09/14 10:58:27;;;;;;;6.35;5.72;;;16.90;99.90;;;;;;5054100;28;20904;-74
2022/09/14 11:01:25;;;;;;;6.88;5.60;;;16.90;99.90;;;;;;5053889;28;20420;-74
2022/09/14 11:04:12;;;;;;;6.47;5.40;;;16.90;99.90;;;;;;5042859;28;20451;-72
2022/09/14 11:06:37;;;;;;;6.10;5.50;;;16.90;99.50;;;;;;5056529;28;20385;-72
2022/09/14 11:09:15;;;;;;;6.10;5.00;;;16.90;99.90;;;;;;5054107;28;20381;-72
2022/09/14 11:12:00;;;;;;;6.90;5.72;;;16.90;99.30;;;;;;5053458;28;20385;-73
2022/09/14 11:15:09;;;;;;;9.27;5.97;;;16.80;99.90;;;;;;5049889;28;20396;-72
2022/09/14 11:18:19;;;;;;;8.02;5.40;;;16.80;99.90;;;;;;5020198;28;20405;-73
2022/09/14 11:20:59;;;;;;;10.63;4.80;;;17.00;99.90;;;;;;5036472;28;20487;-73
2022/09/14 11:23:59;;;;;;;5.00;4.50;;;17.10;99.10;;;;;;5036347;28;20403;-72
2022/09/14 11:26:32;;;;;;;6.85;5.50;;;17.20;97.80;;;;;;5038818;28;20427;-73
2022/09/14 11:29:27;;;;;;;6.18;4.68;;;17.30;99.10;;;;;;5055968;28;20447;-73
2022/09/14 11:32:11;;;;;;;4.70;4.10;;;17.20;97.70;;;;;;5055205;28;20867;-73
2022/09/14 11:34:53;;;;;;;6.65;4.47;;;17.20;96.90;;;;;;5055018;28;20394;-72
2022/09/14 11:37:23;;;;;;;5.03;4.40;;;17.30;96.70;;;;;;5055145;28;20473;-72
2022/09/14 11:40:16;;;;;;;5.20;3.97;;;17.40;93.30;;;;;;5053595;28;20412;-72
2022/09/14 11:42:49;;;;;;;4.03;3.63;;;17.40;92.00;;;;;;5016720;28;20735;-73
2022/09/14 11:45:24;;;;;;;4.93;4.40;;;17.20;92.90;;;;;;5053237;28;20484;-73
2022/09/14 11:48:12;;;;;;;4.38;3.35;;;17.10;95.10;;;;;;5052197;28;20377;-72
2022/09/14 11:50:41;;;;;;;4.63;3.80;;;17.00;98.20;;;;;;5053395;28;20858;-72
2022/09/14 11:53:13;;;;;;;5.53;3.80;;;17.00;97.30;;;;;;5054815;28;20412;-73
2022/09/14 11:55:50;;;;;;;6.00;3.90;;;16.90;98.70;;;;;;5055383;28;20381;-72
2022/09/14 11:58:28;;;;;;;7.55;3.80;;;16.90;99.90;;;;;;5055707;28;20472;-72
2022/09/14 12:01:25;;;;;;;5.10;3.20;;;16.90;97.70;;;;;;5057450;28;20420;-74
2022/09/14 12:03:53;;;;;;;8.50;4.10;;;16.80;98.60;;;;;;5054752;28;20393;-73
2022/09/14 12:06:30;;;;;;;7.07;3.83;;;16.80;99.90;;;;;;5051371;28;20381;-73
2022/09/14 12:09:21;;;;;;;8.35;4.30;;;16.90;99.90;;;;;;5053060;28;20388;-72
2022/09/14 12:11:48;;;;;;;5.78;3.70;;;16.90;99.90;;;;;;5054887;28;20405;-73
2022/09/14 12:14:22;;;;;;;4.28;3.40;;;17.00;99.90;;;;;;5055145;28;20738;-72
2022/09/14 12:17:26;;;;;;;6.07;3.70;;;17.00;99.90;;;;;;5055343;28;20378;-73
2022/09/14 12:19:56;;;;;;;3.65;2.70;;;17.00;99.90;;;;;;5055800;28;20401;-73
2022/09/14 12:22:36;;;;;;;5.55;3.50;;;17.00;93.20;;;;;;5053990;28;20389;-73
2022/09/14 12:25:21;;;;;;;3.72;2.80;;;17.00;97.30;;;;;;5036383;28;20401;-72
2022/09/14 12:27:49;;;;;;;6.00;3.22;;;17.10;96.80;;;;;;5039854;28;20397;-72
2022/09/14 12:30:38;;;;;;;3.17;2.80;;;17.10;95.60;;;;;;5056775;28;20435;-72
2022/09/14 12:33:33;;;;;;;5.10;3.17;;;17.10;94.90;;;;;;5056338;28;20508;-72
2022/09/14 12:36:28;;;;;;;3.10;2.80;;;17.00;95.20;;;;;;5058568;28;20396;-73
2022/09/14 12:38:54;;;;;;;2.95;2.70;;;17.10;95.20;;;;;;5010258;28;20390;-72
2022/09/14 12:41:19;;;;;;;4.17;3.10;;;17.10;93.10;;;;;;5059655;28;20495;-74
2022/09/14 12:43:47;;;;;;;6.30;3.37;;;17.00;92.20;;;;;;5042682;28;20386;-73
2022/09/14 12:46:19;;;;;;;4.45;2.70;;;16.90;93.50;;;;;;5059966;28;20397;-72
2022/09/14 12:48:45;;;;;;;4.07;3.22;;;16.90;97.20;;;;;;5058800;28;20385;-73
2022/09/14 12:51:25;;;;;;;5.70;3.40;;;16.80;95.20;;;;;;5056827;28;20385;-72
2022/09/14 12:54:07;;;;;;;4.97;3.65;;;16.80;94.40;;;;;;5057320;28;20480;-73
2022/09/14 12:56:39;;;;;;;3.60;3.30;;;16.60;98.80;;;;;;5058300;28;20797;-71
2022/09/14 12:59:30;;;;;;;6.28;4.00;;;16.70;98.80;;;;;;5068530;28;20385;-72
2022/09/14 13:02:20;;;;;;;6.95;4.40;;;16.70;99.90;;;;;;5039186;28;20895;-73
2022/09/14 13:04:46;;;;;;;6.13;4.10;;;16.80;96.90;;;;;;5040147;28;20485;-72
2022/09/14 13:07:18;;;;;;;9.80;4.68;;;16.80;96.00;;;;;;5058527;28;20381;-75
2022/09/14 13:09:53;;;;;;;5.55;3.70;;;16.70;93.80;;;;;;5056869;28;20500;-73